sensor_id;sensor_type;location;lat;lon;timestamp;temperature;humidity
83142;DHT22;75194;51.180;5.972;2024-01-15T00:01:17;1.10;85.20
83142;DHT22;75194;51.180;5.972;2024-01-15T00:03:42;1.10;85.20
83142;DHT22;75194;51.180;5.972;2024-01-15T00:06:08;1.10;85.00
83142;DHT22;75194;51.180;5.972;2024-01-15T00:08:34;1.10;84.70
83142;DHT22;75194;51.180;5.972;2024-01-15T00:10:59;1.10;84.90
83142;DHT22;75194;51.180;5.972;2024-01-15T00:13:25;1.00;85.20
83142;DHT22;75194;51.180;5.972;2024-01-15T00:15:51;1.00;85.60
83142;DHT22;75194;51.180;5.972;2024-01-15T00:18:16;0.90;85.90
83142;DHT22;75194;51.180;5.972;2024-01-15T00:20:42;0.90;86.00
83142;DHT22;75194;51.180;5.972;2024-01-15T00:23:08;0.90;86.30
83142;DHT22;75194;51.180;5.972;2024-01-15T00:25:33;0.90;86.30
83142;DHT22;75194;51.180;5.972;2024-01-15T00:27:59;0.90;86.40
83142;DHT22;75194;51.180;5.972;2024-01-15T00:30:24;0.90;86.70
83142;DHT22;75194;51.180;5.972;2024-01-15T00:32:50;1.00;86.30
83142;DHT22;75194;51.180;5.972;2024-01-15T00:35:16;1.00;86.20
83142;DHT22;75194;51.180;5.972;2024-01-15T00:37:41;1.00;86.10
83142;DHT22;75194;51.180;5.972;2024-01-15T00:40:07;1.10;86.10
83142;DHT22;75194;51.180;5.972;2024-01-15T00:42:33;1.10;86.00
83142;DHT22;75194;51.180;5.972;2024-01-15T00:44:59;1.10;85.90
83142;DHT22;75194;51.180;5.972;2024-01-15T00:47:25;1.10;86.10
83142;DHT22;75194;51.180;5.972;2024-01-15T00:49:51;1.10;86.20
83142;DHT22;75194;51.180;5.972;2024-01-15T00:52:16;1.10;86.30
83142;DHT22;75194;51.180;5.972;2024-01-15T00:54:42;1.10;86.40
83142;DHT22;75194;51.180;5.972;2024-01-15T00:57:08;1.10;86.80
83142;DHT22;75194;51.180;5.972;2024-01-15T00:59:33;1.10;86.80
83142;DHT22;75194;51.180;5.972;2024-01-15T01:01:59;1.10;87.00
83142;DHT22;75194;51.180;5.972;2024-01-15T01:04:25;1.00;86.90
83142;DHT22;75194;51.180;5.972;2024-01-15T01:06:50;1.00;87.30
83142;DHT22;75194;51.180;5.972;2024-01-15T01:09:16;1.00;87.20
83142;DHT22;75194;51.180;5.972;2024-01-15T01:11:42;1.10;87.40
83142;DHT22;75194;51.180;5.972;2024-01-15T01:14:07;1.00;86.90
83142;DHT22;75194;51.180;5.972;2024-01-15T01:16:33;1.10;87.20
83142;DHT22;75194;51.180;5.972;2024-01-15T01:19:05;1.10;87.20
83142;DHT22;75194;51.180;5.972;2024-01-15T01:21:31;1.10;87.10
83142;DHT22;75194;51.180;5.972;2024-01-15T01:23:56;1.10;87.20
83142;DHT22;75194;51.180;5.972;2024-01-15T01:26:22;1.10;87.20
83142;DHT22;75194;51.180;5.972;2024-01-15T01:28:48;1.10;87.30
83142;DHT22;75194;51.180;5.972;2024-01-15T01:31:13;1.10;87.00
83142;DHT22;75194;51.180;5.972;2024-01-15T01:33:39;1.10;87.00
83142;DHT22;75194;51.180;5.972;2024-01-15T01:36:09;1.10;87.10
83142;DHT22;75194;51.180;5.972;2024-01-15T01:38:35;1.10;86.90
83142;DHT22;75194;51.180;5.972;2024-01-15T01:41:01;1.10;86.80
83142;DHT22;75194;51.180;5.972;2024-01-15T01:43:27;1.20;87.00
83142;DHT22;75194;51.180;5.972;2024-01-15T01:45:54;1.20;86.80
83142;DHT22;75194;51.180;5.972;2024-01-15T01:48:21;1.10;86.90
83142;DHT22;75194;51.180;5.972;2024-01-15T01:50:47;1.10;86.80
83142;DHT22;75194;51.180;5.972;2024-01-15T01:53:13;1.10;86.90
83142;DHT22;75194;51.180;5.972;2024-01-15T01:55:39;1.10;86.90
83142;DHT22;75194;51.180;5.972;2024-01-15T01:58:05;1.10;86.90
83142;DHT22;75194;51.180;5.972;2024-01-15T02:00:32;1.20;87.00
83142;DHT22;75194;51.180;5.972;2024-01-15T02:02:59;1.10;87.00
83142;DHT22;75194;51.180;5.972;2024-01-15T02:05:25;1.20;87.30
83142;DHT22;75194;51.180;5.972;2024-01-15T02:07:52;1.20;87.20
83142;DHT22;75194;51.180;5.972;2024-01-15T02:10:17;1.20;87.00
83142;DHT22;75194;51.180;5.972;2024-01-15T02:12:43;1.20;87.10
83142;DHT22;75194;51.180;5.972;2024-01-15T02:15:10;1.20;87.20
83142;DHT22;75194;51.180;5.972;2024-01-15T02:17:59;1.20;87.20
83142;DHT22;75194;51.180;5.972;2024-01-15T02:20:25;1.20;87.10
83142;DHT22;75194;51.180;5.972;2024-01-15T02:22:51;1.20;87.10
83142;DHT22;75194;51.180;5.972;2024-01-15T02:25:18;1.20;86.90
83142;DHT22;75194;51.180;5.972;2024-01-15T02:27:44;1.20;87.00
83142;DHT22;75194;51.180;5.972;2024-01-15T02:30:13;1.30;86.80
83142;DHT22;75194;51.180;5.972;2024-01-15T02:32:39;1.30;86.50
83142;DHT22;75194;51.180;5.972;2024-01-15T02:35:05;1.30;86.40
83142;DHT22;75194;51.180;5.972;2024-01-15T02:37:31;1.30;86.50
83142;DHT22;75194;51.180;5.972;2024-01-15T02:39:56;1.40;86.40
83142;DHT22;75194;51.180;5.972;2024-01-15T02:42:22;1.40;86.00
83142;DHT22;75194;51.180;5.972;2024-01-15T02:44:47;1.40;85.60
83142;DHT22;75194;51.180;5.972;2024-01-15T02:47:14;1.40;85.80
83142;DHT22;75194;51.180;5.972;2024-01-15T02:49:40;1.30;85.60
83142;DHT22;75194;51.180;5.972;2024-01-15T02:52:06;1.30;85.90
83142;DHT22;75194;51.180;5.972;2024-01-15T02:54:31;1.20;86.10
83142;DHT22;75194;51.180;5.972;2024-01-15T02:56:57;1.20;86.00
83142;DHT22;75194;51.180;5.972;2024-01-15T02:59:25;1.20;86.10
83142;DHT22;75194;51.180;5.972;2024-01-15T03:01:51;1.20;85.90
83142;DHT22;75194;51.180;5.972;2024-01-15T03:04:16;1.20;86.20
83142;DHT22;75194;51.180;5.972;2024-01-15T03:06:42;1.20;85.90
83142;DHT22;75194;51.180;5.972;2024-01-15T03:09:07;1.20;85.90
83142;DHT22;75194;51.180;5.972;2024-01-15T03:11:40;1.20;86.10
83142;DHT22;75194;51.180;5.972;2024-01-15T03:14:06;1.20;86.00
83142;DHT22;75194;51.180;5.972;2024-01-15T03:16:32;1.20;86.10
83142;DHT22;75194;51.180;5.972;2024-01-15T03:18:57;1.20;85.80
83142;DHT22;75194;51.180;5.972;2024-01-15T03:21:23;1.30;85.80
83142;DHT22;75194;51.180;5.972;2024-01-15T03:23:48;1.20;86.00
83142;DHT22;75194;51.180;5.972;2024-01-15T03:26:14;1.30;86.10
83142;DHT22;75194;51.180;5.972;2024-01-15T03:28:40;1.20;85.90
83142;DHT22;75194;51.180;5.972;2024-01-15T03:31:05;1.20;86.00
83142;DHT22;75194;51.180;5.972;2024-01-15T03:33:31;1.20;86.00
83142;DHT22;75194;51.180;5.972;2024-01-15T03:35:57;1.20;86.00
83142;DHT22;75194;51.180;5.972;2024-01-15T03:38:23;1.20;86.00
83142;DHT22;75194;51.180;5.972;2024-01-15T03:40:49;1.20;85.90
83142;DHT22;75194;51.180;5.972;2024-01-15T03:43:14;1.20;86.00
83142;DHT22;75194;51.180;5.972;2024-01-15T03:45:40;1.30;85.80
83142;DHT22;75194;51.180;5.972;2024-01-15T03:48:06;1.30;85.80
83142;DHT22;75194;51.180;5.972;2024-01-15T03:50:32;1.20;85.60
83142;DHT22;75194;51.180;5.972;2024-01-15T03:52:57;1.20;85.70
83142;DHT22;75194;51.180;5.972;2024-01-15T03:55:23;1.20;85.90
83142;DHT22;75194;51.180;5.972;2024-01-15T03:57:48;1.20;85.80
83142;DHT22;75194;51.180;5.972;2024-01-15T04:00:15;1.20;85.80
83142;DHT22;75194;51.180;5.972;2024-01-15T04:02:43;1.20;85.80
83142;DHT22;75194;51.180;5.972;2024-01-15T04:05:09;1.20;85.70
83142;DHT22;75194;51.180;5.972;2024-01-15T04:07:35;1.20;85.70
83142;DHT22;75194;51.180;5.972;2024-01-15T04:10:00;1.20;85.80
83142;DHT22;75194;51.180;5.972;2024-01-15T04:12:26;1.20;85.70
83142;DHT22;75194;51.180;5.972;2024-01-15T04:14:52;1.20;85.70
83142;DHT22;75194;51.180;5.972;2024-01-15T04:17:17;1.20;85.50
83142;DHT22;75194;51.180;5.972;2024-01-15T04:19:46;1.20;85.60
83142;DHT22;75194;51.180;5.972;2024-01-15T04:22:13;1.20;85.80
83142;DHT22;75194;51.180;5.972;2024-01-15T04:24:39;1.20;85.40
83142;DHT22;75194;51.180;5.972;2024-01-15T04:27:05;1.20;85.80
83142;DHT22;75194;51.180;5.972;2024-01-15T04:29:31;1.30;85.20
83142;DHT22;75194;51.180;5.972;2024-01-15T04:31:56;1.30;85.20
83142;DHT22;75194;51.180;5.972;2024-01-15T04:34:22;1.30;85.30
83142;DHT22;75194;51.180;5.972;2024-01-15T04:36:48;1.30;85.10
83142;DHT22;75194;51.180;5.972;2024-01-15T04:39:13;1.30;85.10
83142;DHT22;75194;51.180;5.972;2024-01-15T04:41:39;1.30;85.10
83142;DHT22;75194;51.180;5.972;2024-01-15T04:44:04;1.30;85.10
83142;DHT22;75194;51.180;5.972;2024-01-15T04:46:30;1.30;85.10
83142;DHT22;75194;51.180;5.972;2024-01-15T04:48:56;1.30;85.00
83142;DHT22;75194;51.180;5.972;2024-01-15T04:51:21;1.30;85.00
83142;DHT22;75194;51.180;5.972;2024-01-15T04:53:47;1.30;85.20
83142;DHT22;75194;51.180;5.972;2024-01-15T04:56:13;1.30;85.30
83142;DHT22;75194;51.180;5.972;2024-01-15T04:58:38;1.30;85.10
83142;DHT22;75194;51.180;5.972;2024-01-15T05:01:04;1.30;85.10
83142;DHT22;75194;51.180;5.972;2024-01-15T05:03:29;1.20;85.50
83142;DHT22;75194;51.180;5.972;2024-01-15T05:05:55;1.30;85.30
83142;DHT22;75194;51.180;5.972;2024-01-15T05:08:21;1.30;85.30
83142;DHT22;75194;51.180;5.972;2024-01-15T05:10:47;1.30;85.40
83142;DHT22;75194;51.180;5.972;2024-01-15T05:13:13;1.40;85.50
83142;DHT22;75194;51.180;5.972;2024-01-15T05:15:38;1.40;85.20
83142;DHT22;75194;51.180;5.972;2024-01-15T05:18:05;1.40;85.20
83142;DHT22;75194;51.180;5.972;2024-01-15T05:20:31;1.40;85.40
83142;DHT22;75194;51.180;5.972;2024-01-15T05:22:57;1.30;85.60
83142;DHT22;75194;51.180;5.972;2024-01-15T05:25:22;1.30;85.50
83142;DHT22;75194;51.180;5.972;2024-01-15T05:27:48;1.20;85.70
83142;DHT22;75194;51.180;5.972;2024-01-15T05:30:14;1.30;85.70
83142;DHT22;75194;51.180;5.972;2024-01-15T05:32:40;1.30;85.80
83142;DHT22;75194;51.180;5.972;2024-01-15T05:35:06;1.30;86.00
83142;DHT22;75194;51.180;5.972;2024-01-15T05:37:32;1.20;86.50
83142;DHT22;75194;51.180;5.972;2024-01-15T05:39:57;1.30;86.30
83142;DHT22;75194;51.180;5.972;2024-01-15T05:42:23;1.20;86.60
83142;DHT22;75194;51.180;5.972;2024-01-15T05:44:48;1.20;86.60
83142;DHT22;75194;51.180;5.972;2024-01-15T05:47:14;1.20;86.50
83142;DHT22;75194;51.180;5.972;2024-01-15T05:49:40;1.30;86.40
83142;DHT22;75194;51.180;5.972;2024-01-15T05:52:06;1.30;86.60
83142;DHT22;75194;51.180;5.972;2024-01-15T05:54:32;1.20;86.70
83142;DHT22;75194;51.180;5.972;2024-01-15T05:56:57;1.20;86.70
83142;DHT22;75194;51.180;5.972;2024-01-15T05:59:23;1.30;86.40
83142;DHT22;75194;51.180;5.972;2024-01-15T06:01:49;1.30;86.40
83142;DHT22;75194;51.180;5.972;2024-01-15T06:04:15;1.30;86.10
83142;DHT22;75194;51.180;5.972;2024-01-15T06:06:41;1.40;85.70
83142;DHT22;75194;51.180;5.972;2024-01-15T06:09:07;1.40;85.60
83142;DHT22;75194;51.180;5.972;2024-01-15T06:11:33;1.40;85.70
83142;DHT22;75194;51.180;5.972;2024-01-15T06:13:58;1.40;85.50
83142;DHT22;75194;51.180;5.972;2024-01-15T06:16:25;1.50;85.80
83142;DHT22;75194;51.180;5.972;2024-01-15T06:18:51;1.40;85.60
83142;DHT22;75194;51.180;5.972;2024-01-15T06:21:17;1.40;85.50
83142;DHT22;75194;51.180;5.972;2024-01-15T06:23:43;1.40;85.80
83142;DHT22;75194;51.180;5.972;2024-01-15T06:26:11;1.40;85.90
83142;DHT22;75194;51.180;5.972;2024-01-15T06:28:36;1.40;86.10
83142;DHT22;75194;51.180;5.972;2024-01-15T06:31:02;1.50;85.50
83142;DHT22;75194;51.180;5.972;2024-01-15T06:33:28;1.50;85.40
83142;DHT22;75194;51.180;5.972;2024-01-15T06:35:54;1.40;85.10
83142;DHT22;75194;51.180;5.972;2024-01-15T06:38:20;1.40;85.40
83142;DHT22;75194;51.180;5.972;2024-01-15T06:40:45;1.40;85.60
83142;DHT22;75194;51.180;5.972;2024-01-15T06:43:13;1.40;85.70
83142;DHT22;75194;51.180;5.972;2024-01-15T06:45:40;1.40;86.00
83142;DHT22;75194;51.180;5.972;2024-01-15T06:48:06;1.40;85.80
83142;DHT22;75194;51.180;5.972;2024-01-15T06:50:32;1.40;86.10
83142;DHT22;75194;51.180;5.972;2024-01-15T06:52:58;1.40;86.00
83142;DHT22;75194;51.180;5.972;2024-01-15T06:55:24;1.40;85.60
83142;DHT22;75194;51.180;5.972;2024-01-15T06:57:49;1.40;85.50
83142;DHT22;75194;51.180;5.972;2024-01-15T07:00:16;1.30;85.60
83142;DHT22;75194;51.180;5.972;2024-01-15T07:02:41;1.30;85.70
83142;DHT22;75194;51.180;5.972;2024-01-15T07:05:07;1.40;85.70
83142;DHT22;75194;51.180;5.972;2024-01-15T07:07:33;1.40;85.40
83142;DHT22;75194;51.180;5.972;2024-01-15T07:09:58;1.40;85.40
83142;DHT22;75194;51.180;5.972;2024-01-15T07:12:24;1.40;85.10
83142;DHT22;75194;51.180;5.972;2024-01-15T07:14:50;1.40;85.60
83142;DHT22;75194;51.180;5.972;2024-01-15T07:17:15;1.40;85.00
83142;DHT22;75194;51.180;5.972;2024-01-15T07:19:41;1.40;85.00
83142;DHT22;75194;51.180;5.972;2024-01-15T07:22:07;1.40;85.00
83142;DHT22;75194;51.180;5.972;2024-01-15T07:24:32;1.40;85.50
83142;DHT22;75194;51.180;5.972;2024-01-15T07:27:01;1.30;85.30
83142;DHT22;75194;51.180;5.972;2024-01-15T07:29:26;1.20;86.00
83142;DHT22;75194;51.180;5.972;2024-01-15T07:31:52;1.20;86.10
83142;DHT22;75194;51.180;5.972;2024-01-15T07:34:18;1.20;86.40
83142;DHT22;75194;51.180;5.972;2024-01-15T07:36:44;1.20;86.10
83142;DHT22;75194;51.180;5.972;2024-01-15T07:39:10;1.20;86.30
83142;DHT22;75194;51.180;5.972;2024-01-15T07:41:36;1.20;86.40
83142;DHT22;75194;51.180;5.972;2024-01-15T07:44:03;1.10;86.80
83142;DHT22;75194;51.180;5.972;2024-01-15T07:46:30;1.20;86.80
83142;DHT22;75194;51.180;5.972;2024-01-15T07:48:55;1.10;87.20
83142;DHT22;75194;51.180;5.972;2024-01-15T07:51:23;1.20;87.20
83142;DHT22;75194;51.180;5.972;2024-01-15T07:53:49;1.20;86.80
83142;DHT22;75194;51.180;5.972;2024-01-15T07:56:15;1.10;86.80
83142;DHT22;75194;51.180;5.972;2024-01-15T07:58:41;1.10;86.70
83142;DHT22;75194;51.180;5.972;2024-01-15T08:01:07;1.00;87.00
83142;DHT22;75194;51.180;5.972;2024-01-15T08:03:33;1.00;87.30
83142;DHT22;75194;51.180;5.972;2024-01-15T08:05:59;1.00;87.10
83142;DHT22;75194;51.180;5.972;2024-01-15T08:08:27;1.00;86.80
83142;DHT22;75194;51.180;5.972;2024-01-15T08:10:53;1.00;87.30
83142;DHT22;75194;51.180;5.972;2024-01-15T08:13:19;1.00;87.00
83142;DHT22;75194;51.180;5.972;2024-01-15T08:15:46;1.00;87.30
83142;DHT22;75194;51.180;5.972;2024-01-15T08:18:12;1.00;87.00
83142;DHT22;75194;51.180;5.972;2024-01-15T08:20:38;1.00;87.10
83142;DHT22;75194;51.180;5.972;2024-01-15T08:23:04;1.00;86.80
83142;DHT22;75194;51.180;5.972;2024-01-15T08:25:30;0.90;87.20
83142;DHT22;75194;51.180;5.972;2024-01-15T08:27:58;0.90;86.90
83142;DHT22;75194;51.180;5.972;2024-01-15T08:30:24;0.80;87.00
83142;DHT22;75194;51.180;5.972;2024-01-15T08:32:53;0.90;87.30
83142;DHT22;75194;51.180;5.972;2024-01-15T08:35:19;0.90;87.30
83142;DHT22;75194;51.180;5.972;2024-01-15T08:37:52;0.90;87.20
83142;DHT22;75194;51.180;5.972;2024-01-15T08:40:18;1.00;86.80
83142;DHT22;75194;51.180;5.972;2024-01-15T08:42:44;1.00;86.70
83142;DHT22;75194;51.180;5.972;2024-01-15T08:45:11;1.10;86.40
83142;DHT22;75194;51.180;5.972;2024-01-15T08:47:37;1.10;86.00
83142;DHT22;75194;51.180;5.972;2024-01-15T08:50:03;1.10;85.80
83142;DHT22;75194;51.180;5.972;2024-01-15T08:52:29;1.20;85.30
83142;DHT22;75194;51.180;5.972;2024-01-15T08:54:58;1.20;85.50
83142;DHT22;75194;51.180;5.972;2024-01-15T08:57:24;1.30;85.30
83142;DHT22;75194;51.180;5.972;2024-01-15T08:59:50;1.30;85.20
83142;DHT22;75194;51.180;5.972;2024-01-15T09:02:16;1.30;85.40
83142;DHT22;75194;51.180;5.972;2024-01-15T09:04:42;1.30;85.60
83142;DHT22;75194;51.180;5.972;2024-01-15T09:07:08;1.20;85.50
83142;DHT22;75194;51.180;5.972;2024-01-15T09:09:34;1.30;85.60
83142;DHT22;75194;51.180;5.972;2024-01-15T09:12:00;1.30;85.80
83142;DHT22;75194;51.180;5.972;2024-01-15T09:14:26;1.30;86.10
83142;DHT22;75194;51.180;5.972;2024-01-15T09:16:53;1.20;85.60
83142;DHT22;75194;51.180;5.972;2024-01-15T09:19:19;1.20;85.80
83142;DHT22;75194;51.180;5.972;2024-01-15T09:21:44;1.20;86.00
83142;DHT22;75194;51.180;5.972;2024-01-15T09:24:10;1.20;86.10
83142;DHT22;75194;51.180;5.972;2024-01-15T09:26:36;1.20;85.60
83142;DHT22;75194;51.180;5.972;2024-01-15T09:29:02;1.20;85.70
83142;DHT22;75194;51.180;5.972;2024-01-15T09:31:28;1.10;86.00
83142;DHT22;75194;51.180;5.972;2024-01-15T09:33:54;1.00;86.10
83142;DHT22;75194;51.180;5.972;2024-01-15T09:36:24;1.10;86.30
83142;DHT22;75194;51.180;5.972;2024-01-15T09:38:51;1.10;86.20
83142;DHT22;75194;51.180;5.972;2024-01-15T09:41:16;1.00;86.30
83142;DHT22;75194;51.180;5.972;2024-01-15T09:43:42;1.10;86.00
83142;DHT22;75194;51.180;5.972;2024-01-15T09:46:08;1.10;85.90
83142;DHT22;75194;51.180;5.972;2024-01-15T09:48:34;1.10;86.40
83142;DHT22;75194;51.180;5.972;2024-01-15T09:51:01;1.10;86.10
83142;DHT22;75194;51.180;5.972;2024-01-15T09:53:27;1.20;86.10
83142;DHT22;75194;51.180;5.972;2024-01-15T09:55:53;1.20;85.70
83142;DHT22;75194;51.180;5.972;2024-01-15T09:58:19;1.20;85.70
83142;DHT22;75194;51.180;5.972;2024-01-15T10:00:47;1.10;86.20
83142;DHT22;75194;51.180;5.972;2024-01-15T10:03:15;1.20;86.10
83142;DHT22;75194;51.180;5.972;2024-01-15T10:05:41;1.10;86.00
83142;DHT22;75194;51.180;5.972;2024-01-15T10:08:07;1.10;86.20
83142;DHT22;75194;51.180;5.972;2024-01-15T10:10:33;1.20;85.90
83142;DHT22;75194;51.180;5.972;2024-01-15T10:13:01;1.20;86.10
83142;DHT22;75194;51.180;5.972;2024-01-15T10:15:27;1.20;86.40
83142;DHT22;75194;51.180;5.972;2024-01-15T10:17:52;1.20;86.30
83142;DHT22;75194;51.180;5.972;2024-01-15T10:20:18;1.20;86.30
83142;DHT22;75194;51.180;5.972;2024-01-15T10:22:45;1.20;86.10
83142;DHT22;75194;51.180;5.972;2024-01-15T10:25:13;1.20;86.50
83142;DHT22;75194;51.180;5.972;2024-01-15T10:27:39;1.30;86.40
83142;DHT22;75194;51.180;5.972;2024-01-15T10:30:07;1.30;86.30
83142;DHT22;75194;51.180;5.972;2024-01-15T10:32:33;1.30;86.00
83142;DHT22;75194;51.180;5.972;2024-01-15T10:34:58;1.40;86.20
83142;DHT22;75194;51.180;5.972;2024-01-15T10:37:24;1.40;85.50
83142;DHT22;75194;51.180;5.972;2024-01-15T10:39:51;1.30;85.60
83142;DHT22;75194;51.180;5.972;2024-01-15T10:42:16;1.30;85.20
83142;DHT22;75194;51.180;5.972;2024-01-15T10:44:44;1.20;85.90
83142;DHT22;75194;51.180;5.972;2024-01-15T10:47:12;1.30;86.10
83142;DHT22;75194;51.180;5.972;2024-01-15T10:49:38;1.30;85.90
83142;DHT22;75194;51.180;5.972;2024-01-15T10:52:05;1.30;86.10
83142;DHT22;75194;51.180;5.972;2024-01-15T10:54:32;1.30;85.80
83142;DHT22;75194;51.180;5.972;2024-01-15T10:56:57;1.40;85.50
83142;DHT22;75194;51.180;5.972;2024-01-15T10:59:23;1.30;85.70
83142;DHT22;75194;51.180;5.972;2024-01-15T11:01:51;1.40;85.30
83142;DHT22;75194;51.180;5.972;2024-01-15T11:04:20;1.40;85.20
83142;DHT22;75194;51.180;5.972;2024-01-15T11:06:48;1.40;85.10
83142;DHT22;75194;51.180;5.972;2024-01-15T11:09:15;1.40;85.10
83142;DHT22;75194;51.180;5.972;2024-01-15T11:11:43;1.90;83.60
83142;DHT22;75194;51.180;5.972;2024-01-15T11:14:09;2.00;83.00
83142;DHT22;75194;51.180;5.972;2024-01-15T11:16:57;1.90;82.70
83142;DHT22;75194;51.180;5.972;2024-01-15T11:19:24;2.70;80.60
83142;DHT22;75194;51.180;5.972;2024-01-15T11:21:50;2.40;80.80
83142;DHT22;75194;51.180;5.972;2024-01-15T11:24:34;2.10;82.00
83142;DHT22;75194;51.180;5.972;2024-01-15T11:27:00;2.20;81.80
83142;DHT22;75194;51.180;5.972;2024-01-15T11:34:21;2.20;80.80
83142;DHT22;75194;51.180;5.972;2024-01-15T11:41:58;2.00;82.00
83142;DHT22;75194;51.180;5.972;2024-01-15T11:44:26;2.00;82.60
83142;DHT22;75194;51.180;5.972;2024-01-15T11:47:01;2.00;83.10
83142;DHT22;75194;51.180;5.972;2024-01-15T11:52:23;2.10;82.80
83142;DHT22;75194;51.180;5.972;2024-01-15T11:55:15;2.10;82.10
83142;DHT22;75194;51.180;5.972;2024-01-15T11:57:52;2.10;82.60
83142;DHT22;75194;51.180;5.972;2024-01-15T12:00:18;2.10;81.80
83142;DHT22;75194;51.180;5.972;2024-01-15T12:02:45;2.50;81.20
83142;DHT22;75194;51.180;5.972;2024-01-15T12:05:12;2.70;80.70
83142;DHT22;75194;51.180;5.972;2024-01-15T12:07:41;2.90;79.40
83142;DHT22;75194;51.180;5.972;2024-01-15T12:10:15;2.80;79.50
83142;DHT22;75194;51.180;5.972;2024-01-15T12:15:20;2.50;80.10
83142;DHT22;75194;51.180;5.972;2024-01-15T12:17:46;2.40;80.90
83142;DHT22;75194;51.180;5.972;2024-01-15T12:20:13;2.40;81.10
83142;DHT22;75194;51.180;5.972;2024-01-15T12:22:39;2.40;80.80
83142;DHT22;75194;51.180;5.972;2024-01-15T12:25:05;2.30;81.00
83142;DHT22;75194;51.180;5.972;2024-01-15T12:27:31;2.30;81.50
83142;DHT22;75194;51.180;5.972;2024-01-15T12:29:58;2.30;81.80
83142;DHT22;75194;51.180;5.972;2024-01-15T12:32:24;2.30;81.90
83142;DHT22;75194;51.180;5.972;2024-01-15T12:34:50;2.30;81.70
83142;DHT22;75194;51.180;5.972;2024-01-15T12:37:19;2.10;81.90
83142;DHT22;75194;51.180;5.972;2024-01-15T12:39:45;2.10;82.40
83142;DHT22;75194;51.180;5.972;2024-01-15T12:42:11;2.00;82.70
83142;DHT22;75194;51.180;5.972;2024-01-15T12:44:39;2.00;82.10
83142;DHT22;75194;51.180;5.972;2024-01-15T12:47:05;2.00;82.50
83142;DHT22;75194;51.180;5.972;2024-01-15T12:49:32;1.90;82.50
83142;DHT22;75194;51.180;5.972;2024-01-15T12:51:58;1.90;82.70
83142;DHT22;75194;51.180;5.972;2024-01-15T12:54:24;1.90;83.00
83142;DHT22;75194;51.180;5.972;2024-01-15T12:56:50;2.00;82.90
83142;DHT22;75194;51.180;5.972;2024-01-15T12:59:17;2.00;82.50
83142;DHT22;75194;51.180;5.972;2024-01-15T13:01:43;2.00;82.30
83142;DHT22;75194;51.180;5.972;2024-01-15T13:04:09;2.00;82.50
83142;DHT22;75194;51.180;5.972;2024-01-15T13:06:35;2.00;82.50
83142;DHT22;75194;51.180;5.972;2024-01-15T13:09:00;2.00;82.40
83142;DHT22;75194;51.180;5.972;2024-01-15T13:11:27;2.00;82.40
83142;DHT22;75194;51.180;5.972;2024-01-15T13:13:53;2.00;82.30
83142;DHT22;75194;51.180;5.972;2024-01-15T13:16:19;2.10;82.20
83142;DHT22;75194;51.180;5.972;2024-01-15T13:18:46;2.10;81.90
83142;DHT22;75194;51.180;5.972;2024-01-15T13:21:12;2.10;82.40
83142;DHT22;75194;51.180;5.972;2024-01-15T13:23:38;2.00;82.40
83142;DHT22;75194;51.180;5.972;2024-01-15T13:26:04;2.10;82.20
83142;DHT22;75194;51.180;5.972;2024-01-15T13:28:30;2.00;82.00
83142;DHT22;75194;51.180;5.972;2024-01-15T13:30:56;2.10;81.90
83142;DHT22;75194;51.180;5.972;2024-01-15T13:33:22;2.00;82.30
83142;DHT22;75194;51.180;5.972;2024-01-15T13:35:47;2.10;81.80
83142;DHT22;75194;51.180;5.972;2024-01-15T13:38:15;2.10;81.90
83142;DHT22;75194;51.180;5.972;2024-01-15T13:40:41;2.10;81.50
83142;DHT22;75194;51.180;5.972;2024-01-15T13:43:07;2.10;82.10
83142;DHT22;75194;51.180;5.972;2024-01-15T13:45:36;2.10;81.30
83142;DHT22;75194;51.180;5.972;2024-01-15T13:48:03;2.00;82.10
83142;DHT22;75194;51.180;5.972;2024-01-15T13:50:34;2.10;82.00
83142;DHT22;75194;51.180;5.972;2024-01-15T13:53:00;2.10;81.70
83142;DHT22;75194;51.180;5.972;2024-01-15T13:55:26;2.00;81.60
83142;DHT22;75194;51.180;5.972;2024-01-15T13:57:51;2.10;81.60
83142;DHT22;75194;51.180;5.972;2024-01-15T14:00:17;2.00;81.50
83142;DHT22;75194;51.180;5.972;2024-01-15T14:02:45;2.00;82.00
83142;DHT22;75194;51.180;5.972;2024-01-15T14:05:12;1.90;82.20
83142;DHT22;75194;51.180;5.972;2024-01-15T14:07:41;1.70;83.00
83142;DHT22;75194;51.180;5.972;2024-01-15T14:10:10;1.60;83.50
83142;DHT22;75194;51.180;5.972;2024-01-15T14:12:36;1.50;84.30
83142;DHT22;75194;51.180;5.972;2024-01-15T14:15:02;1.50;84.60
83142;DHT22;75194;51.180;5.972;2024-01-15T14:17:29;1.30;84.80
83142;DHT22;75194;51.180;5.972;2024-01-15T14:19:54;1.30;85.10
83142;DHT22;75194;51.180;5.972;2024-01-15T14:22:20;1.20;85.20
83142;DHT22;75194;51.180;5.972;2024-01-15T14:24:46;1.20;85.80
83142;DHT22;75194;51.180;5.972;2024-01-15T14:27:11;1.20;85.50
83142;DHT22;75194;51.180;5.972;2024-01-15T14:29:37;1.20;85.30
83142;DHT22;75194;51.180;5.972;2024-01-15T14:32:03;1.30;85.20
83142;DHT22;75194;51.180;5.972;2024-01-15T14:34:29;1.40;84.60
83142;DHT22;75194;51.180;5.972;2024-01-15T14:36:55;1.40;84.60
83142;DHT22;75194;51.180;5.972;2024-01-15T14:39:24;1.40;84.50
83142;DHT22;75194;51.180;5.972;2024-01-15T14:41:51;1.40;84.60
83142;DHT22;75194;51.180;5.972;2024-01-15T14:44:16;1.50;84.40
83142;DHT22;75194;51.180;5.972;2024-01-15T14:46:42;1.50;84.30
83142;DHT22;75194;51.180;5.972;2024-01-15T14:49:08;1.60;84.20
83142;DHT22;75194;51.180;5.972;2024-01-15T14:51:34;1.60;83.90
83142;DHT22;75194;51.180;5.972;2024-01-15T14:53:59;1.60;83.60
83142;DHT22;75194;51.180;5.972;2024-01-15T14:56:25;1.60;83.50
83142;DHT22;75194;51.180;5.972;2024-01-15T14:58:51;1.60;83.30
83142;DHT22;75194;51.180;5.972;2024-01-15T15:01:16;1.60;83.20
83142;DHT22;75194;51.180;5.972;2024-01-15T15:03:42;1.60;83.30
83142;DHT22;75194;51.180;5.972;2024-01-15T15:06:09;1.60;82.80
83142;DHT22;75194;51.180;5.972;2024-01-15T15:08:35;1.70;82.90
83142;DHT22;75194;51.180;5.972;2024-01-15T15:11:02;1.70;82.90
83142;DHT22;75194;51.180;5.972;2024-01-15T15:13:28;1.70;82.70
83142;DHT22;75194;51.180;5.972;2024-01-15T15:15:53;1.70;82.50
83142;DHT22;75194;51.180;5.972;2024-01-15T15:18:20;1.70;82.80
83142;DHT22;75194;51.180;5.972;2024-01-15T15:20:47;1.70;82.70
83142;DHT22;75194;51.180;5.972;2024-01-15T15:23:13;1.60;82.90
83142;DHT22;75194;51.180;5.972;2024-01-15T15:25:39;1.70;82.60
83142;DHT22;75194;51.180;5.972;2024-01-15T15:28:05;1.70;83.00
83142;DHT22;75194;51.180;5.972;2024-01-15T15:30:33;1.70;82.60
83142;DHT22;75194;51.180;5.972;2024-01-15T15:32:59;1.70;82.60
83142;DHT22;75194;51.180;5.972;2024-01-15T15:35:25;1.70;82.80
83142;DHT22;75194;51.180;5.972;2024-01-15T15:37:50;1.70;82.90
83142;DHT22;75194;51.180;5.972;2024-01-15T15:40:16;1.70;82.90
83142;DHT22;75194;51.180;5.972;2024-01-15T15:42:43;1.70;82.90
83142;DHT22;75194;51.180;5.972;2024-01-15T15:45:09;1.60;83.20
83142;DHT22;75194;51.180;5.972;2024-01-15T15:47:37;1.60;83.20
83142;DHT22;75194;51.180;5.972;2024-01-15T15:50:04;1.60;83.10
83142;DHT22;75194;51.180;5.972;2024-01-15T15:52:30;1.60;82.60
83142;DHT22;75194;51.180;5.972;2024-01-15T15:54:56;1.60;82.70